createdAt,value
2023-01-19T00:00:06.264Z,17.77
2023-01-19T00:02:32.934Z,18.02
2023-01-19T00:04:59.490Z,17.55
2023-01-19T00:07:25.963Z,18.20
2023-01-19T00:09:52.431Z,17.60
2023-01-19T00:12:18.920Z,16.95
2023-01-19T00:14:45.409Z,17.25
2023-01-19T00:17:11.972Z,18.15
2023-01-19T00:19:38.630Z,17.67
2023-01-19T00:22:05.972Z,17.25
2023-01-19T00:24:32.935Z,16.55
2023-01-19T00:27:00.178Z,17.83
2023-01-19T00:29:27.665Z,18.15
2023-01-19T00:31:54.227Z,17.77
2023-01-19T00:34:20.717Z,6.40
2023-01-19T00:36:47.266Z,17.83
2023-01-19T00:39:13.828Z,17.85
2023-01-19T00:41:58.935Z,17.63
2023-01-19T00:44:25.443Z,17.83
2023-01-19T00:46:51.944Z,18.52
2023-01-19T00:49:18.654Z,17.95
2023-01-19T00:51:45.207Z,17.98
2023-01-19T00:54:11.739Z,17.52
2023-01-19T00:56:38.372Z,18.00
2023-01-19T00:59:04.987Z,5.32
2023-01-19T01:01:45.361Z,17.65
2023-01-19T01:04:13.586Z,17.77
2023-01-19T01:06:40.450Z,18.50
2023-01-19T01:09:11.800Z,18.05
2023-01-19T01:11:40.133Z,6.45
2023-01-19T01:14:06.900Z,17.33
2023-01-19T01:16:33.594Z,16.77
2023-01-19T01:19:00.308Z,17.33
2023-01-19T01:21:27.077Z,16.58
2023-01-19T01:23:53.581Z,16.52
2023-01-19T01:26:20.108Z,16.35
2023-01-19T01:28:46.693Z,15.50
2023-01-19T01:31:13.281Z,15.35
2023-01-19T01:33:41.799Z,15.45
2023-01-19T01:36:10.164Z,15.43
2023-01-19T01:38:36.716Z,15.85
2023-01-19T01:41:03.557Z,15.40
2023-01-19T01:43:53.342Z,15.77
2023-01-19T01:46:20.333Z,16.00
2023-01-19T01:48:54.715Z,15.80
2023-01-19T01:51:28.335Z,14.20
2023-01-19T01:54:02.751Z,14.30
2023-01-19T01:56:38.913Z,4.15
2023-01-19T01:59:11.271Z,14.15
2023-01-19T02:01:56.744Z,13.52
2023-01-19T02:04:23.944Z,4.93
2023-01-19T02:07:09.291Z,14.52
2023-01-19T02:09:55.525Z,14.68
2023-01-19T02:12:41.298Z,15.18
2023-01-19T02:15:16.022Z,15.07
2023-01-19T02:17:43.171Z,15.63
2023-01-19T02:20:10.596Z,15.77
2023-01-19T02:22:46.359Z,6.78
2023-01-19T02:25:13.250Z,17.02
2023-01-19T02:27:39.865Z,15.88
2023-01-19T02:30:07.974Z,15.23
2023-01-19T02:32:34.474Z,4.70
2023-01-19T02:35:01.314Z,5.85
2023-01-19T02:37:32.565Z,15.10
2023-01-19T02:40:02.173Z,5.30
2023-01-19T02:42:45.474Z,15.85
2023-01-19T02:45:15.422Z,16.23
2023-01-19T02:47:51.058Z,6.13
2023-01-19T02:50:38.246Z,6.85
2023-01-19T02:53:26.767Z,6.43
2023-01-19T02:55:59.282Z,17.70
2023-01-19T02:58:49.287Z,5.72
2023-01-19T03:01:52.983Z,17.88
2023-01-19T03:04:33.450Z,18.60
2023-01-19T03:07:11.083Z,18.33
2023-01-19T03:09:49.529Z,18.45
2023-01-19T03:12:48.331Z,17.50
2023-01-19T03:15:23.546Z,5.68
2023-01-19T03:17:52.904Z,16.77
2023-01-19T03:20:24.698Z,4.43
2023-01-19T03:22:59.010Z,5.53
2023-01-19T03:25:26.171Z,15.18
2023-01-19T03:27:57.357Z,15.60
2023-01-19T03:30:32.130Z,5.35
2023-01-19T03:33:07.877Z,14.30
2023-01-19T03:35:38.760Z,14.55
2023-01-19T03:38:10.312Z,5.63
2023-01-19T03:40:37.579Z,13.32
2023-01-19T03:43:05.214Z,13.05
2023-01-19T03:45:35.549Z,13.60
2023-01-19T03:48:02.753Z,12.98
2023-01-19T03:50:30.562Z,13.32
2023-01-19T03:53:16.747Z,3.80
2023-01-19T03:55:47.074Z,4.18
2023-01-19T03:58:14.108Z,4.10
2023-01-19T04:00:41.447Z,11.30
2023-01-19T04:03:14.644Z,11.32
2023-01-19T04:05:41.624Z,10.65
2023-01-19T04:08:08.249Z,3.72
2023-01-19T04:10:34.789Z,3.42
2023-01-19T04:13:03.011Z,8.82
2023-01-19T04:15:30.613Z,3.13
2023-01-19T04:17:58.383Z,7.78
2023-01-19T04:20:27.072Z,8.02
2023-01-19T04:22:54.963Z,1.85
2023-01-19T04:25:21.618Z,7.35
2023-01-19T04:27:52.732Z,6.25
2023-01-19T04:30:19.568Z,2.28
2023-01-19T04:32:46.292Z,1.35
2023-01-19T04:35:12.807Z,1.60
2023-01-19T04:37:39.984Z,4.45
2023-01-19T04:40:07.259Z,4.80
2023-01-19T04:42:33.745Z,1.50
2023-01-19T04:45:00.213Z,4.50
2023-01-19T04:47:26.748Z,4.82
2023-01-19T04:49:53.218Z,1.23
2023-01-19T04:52:20.252Z,3.78
2023-01-19T04:54:46.737Z,3.45
2023-01-19T04:57:13.225Z,3.50
2023-01-19T04:59:40.120Z,1.30
2023-01-19T05:02:06.699Z,3.10
2023-01-19T05:04:33.668Z,3.40
2023-01-19T05:07:00.122Z,3.40
2023-01-19T05:09:27.294Z,3.58
2023-01-19T05:11:53.955Z,1.08
2023-01-19T05:14:20.703Z,4.13
2023-01-19T05:16:47.206Z,4.80
2023-01-19T05:19:13.750Z,4.60
2023-01-19T05:21:40.275Z,1.60
2023-01-19T05:24:07.278Z,5.25
2023-01-19T05:26:33.758Z,5.85
2023-01-19T05:29:00.216Z,6.20
2023-01-19T05:31:26.775Z,6.50
2023-01-19T05:33:53.388Z,2.38
2023-01-19T05:36:19.932Z,6.38
2023-01-19T05:38:46.438Z,7.00
2023-01-19T05:41:13.055Z,6.57
2023-01-19T05:43:39.524Z,1.58
2023-01-19T05:46:06.707Z,2.05
2023-01-19T05:48:33.216Z,2.25
2023-01-19T05:51:01.285Z,7.50
2023-01-19T05:53:28.618Z,7.90
2023-01-19T05:56:00.396Z,8.18
2023-01-19T05:58:26.935Z,8.45
2023-01-19T06:00:53.437Z,8.68
2023-01-19T06:03:20.152Z,3.08
2023-01-19T06:05:46.841Z,9.50
2023-01-19T06:08:13.345Z,3.50
2023-01-19T06:10:40.305Z,9.70
2023-01-19T06:13:06.980Z,2.92
2023-01-19T06:15:33.499Z,3.55
2023-01-19T06:18:01.027Z,9.15
2023-01-19T06:20:27.542Z,9.95
2023-01-19T06:22:57.007Z,9.10
2023-01-19T06:25:25.454Z,9.55
2023-01-19T06:27:52.072Z,9.75
2023-01-19T06:30:18.938Z,10.52
2023-01-19T06:32:45.433Z,10.95
2023-01-19T06:35:12.236Z,12.30
2023-01-19T06:37:39.172Z,12.50
2023-01-19T06:40:06.865Z,3.72
2023-01-19T06:42:33.471Z,4.65
2023-01-19T06:45:00.105Z,16.00
2023-01-19T06:47:26.599Z,16.58
2023-01-19T06:49:53.259Z,6.35
2023-01-19T06:52:20.582Z,19.20
2023-01-19T06:54:47.554Z,20.52
2023-01-19T06:57:14.249Z,5.88
2023-01-19T06:59:41.083Z,7.22
2023-01-19T07:02:26.471Z,23.42
2023-01-19T07:04:54.701Z,24.17
2023-01-19T07:07:21.255Z,25.88
2023-01-19T07:09:48.025Z,26.25
2023-01-19T07:12:14.660Z,8.38
2023-01-19T07:14:41.163Z,27.00
2023-01-19T07:17:07.800Z,6.68
2023-01-19T07:19:35.322Z,27.52
2023-01-19T07:22:03.087Z,28.13
2023-01-19T07:24:30.624Z,29.63
2023-01-19T07:26:57.134Z,30.50
2023-01-19T07:29:24.507Z,10.00
2023-01-19T07:31:51.138Z,8.70
2023-01-19T07:34:17.733Z,31.63
2023-01-19T07:36:44.270Z,31.40
2023-01-19T07:39:10.786Z,33.92
2023-01-19T07:41:37.365Z,33.72
2023-01-19T07:44:06.625Z,9.82
2023-01-19T07:46:33.181Z,34.92
2023-01-19T07:48:59.973Z,11.15
2023-01-19T07:51:27.753Z,11.20
2023-01-19T07:53:54.218Z,34.00
2023-01-19T07:56:21.994Z,10.02
2023-01-19T07:58:50.396Z,10.05
2023-01-19T08:01:17.001Z,32.63
2023-01-19T08:03:43.741Z,10.98
2023-01-19T08:06:27.030Z,10.13
2023-01-19T08:08:53.520Z,33.08
2023-01-19T08:11:20.083Z,35.33
2023-01-19T08:13:46.623Z,11.05
2023-01-19T08:16:13.104Z,33.42
2023-01-19T08:18:39.656Z,32.90
2023-01-19T08:21:06.332Z,10.23
2023-01-19T08:23:32.873Z,32.92
2023-01-19T08:25:59.355Z,34.65
2023-01-19T08:28:26.097Z,33.45
2023-01-19T08:30:55.614Z,34.00
2023-01-19T08:33:23.769Z,35.33
2023-01-19T08:35:53.042Z,10.43
2023-01-19T08:38:19.844Z,34.50
2023-01-19T08:40:46.448Z,10.15
2023-01-19T08:43:15.476Z,9.80
2023-01-19T08:45:49.127Z,33.63
2023-01-19T08:48:17.567Z,33.50
2023-01-19T08:50:47.542Z,34.60
2023-01-19T08:53:14.392Z,35.05
2023-01-19T08:55:40.969Z,35.60
2023-01-19T08:58:08.723Z,37.60
2023-01-19T09:00:39.550Z,10.90
2023-01-19T09:03:08.101Z,35.58
2023-01-19T09:05:38.601Z,37.78
2023-01-19T09:08:08.233Z,39.10
2023-01-19T09:10:36.147Z,40.13
2023-01-19T09:13:08.128Z,40.53
2023-01-19T09:15:37.410Z,42.67
2023-01-19T09:18:06.790Z,42.53
2023-01-19T09:20:36.001Z,42.83
2023-01-19T09:23:02.839Z,43.63
2023-01-19T09:25:29.477Z,42.55
2023-01-19T09:27:56.254Z,42.88
2023-01-19T09:30:22.836Z,15.48
2023-01-19T09:32:49.382Z,44.83
2023-01-19T09:35:16.426Z,43.95
2023-01-19T09:37:47.087Z,45.70
2023-01-19T09:40:16.580Z,15.82
2023-01-19T09:42:47.310Z,14.57
2023-01-19T09:45:22.749Z,14.35
2023-01-19T09:47:50.775Z,46.15
2023-01-19T09:50:25.615Z,44.70
2023-01-19T09:53:02.574Z,15.23
2023-01-19T09:55:30.419Z,43.92
2023-01-19T09:57:56.946Z,43.70
2023-01-19T10:00:24.758Z,42.65
2023-01-19T10:02:52.960Z,41.88
2023-01-19T10:05:26.926Z,40.58
2023-01-19T10:08:17.175Z,38.95
2023-01-19T10:10:48.418Z,39.53
2023-01-19T10:13:46.978Z,12.05
2023-01-19T10:16:35.466Z,36.40
2023-01-19T10:19:17.113Z,34.80
2023-01-19T10:21:46.428Z,9.98
2023-01-19T10:24:30.086Z,30.73
2023-01-19T10:26:56.995Z,28.95
2023-01-19T10:29:36.581Z,29.63
2023-01-19T10:32:13.941Z,9.57
2023-01-19T10:34:41.616Z,30.48
2023-01-19T10:37:17.382Z,28.20
2023-01-19T10:39:53.717Z,28.27
2023-01-19T10:42:20.407Z,29.17
2023-01-19T10:44:47.053Z,27.88
2023-01-19T10:47:19.046Z,6.88
2023-01-19T10:52:31.149Z,27.33
2023-01-19T10:55:00.043Z,9.23
2023-01-19T10:57:31.636Z,27.15
2023-01-19T10:59:58.604Z,26.30
2023-01-19T11:02:27.719Z,26.23
2023-01-19T11:04:58.690Z,24.65
2023-01-19T11:07:31.133Z,25.48
2023-01-19T11:10:21.956Z,25.35
2023-01-19T11:13:01.395Z,24.98
2023-01-19T11:15:35.600Z,24.77
2023-01-19T11:18:05.330Z,23.92
2023-01-19T11:20:52.649Z,23.92
2023-01-19T11:23:28.573Z,24.40
2023-01-19T11:25:58.726Z,8.15
2023-01-19T11:28:34.143Z,24.17
2023-01-19T11:31:03.174Z,23.27
2023-01-19T11:33:34.278Z,23.15
2023-01-19T11:36:21.260Z,22.60
2023-01-19T11:38:55.391Z,23.40
2023-01-19T11:41:31.740Z,22.60
2023-01-19T11:44:08.670Z,21.80
2023-01-19T11:46:39.420Z,21.80
2023-01-19T11:49:12.765Z,23.05
2023-01-19T11:52:05.751Z,22.60
2023-01-19T11:54:39.018Z,21.65
2023-01-19T11:57:12.987Z,21.20
2023-01-19T11:59:39.543Z,21.55
2023-01-19T12:02:20.481Z,20.92
2023-01-19T12:04:49.943Z,20.83
2023-01-19T12:07:22.171Z,21.88
2023-01-19T12:09:58.662Z,20.65
2023-01-19T12:12:33.333Z,7.93
2023-01-19T12:15:05.515Z,20.30
2023-01-19T12:17:36.609Z,20.23
2023-01-19T12:20:21.275Z,7.87
2023-01-19T12:22:59.865Z,18.95
2023-01-19T12:25:45.032Z,19.33
2023-01-19T12:28:15.221Z,19.83
2023-01-19T12:30:41.796Z,18.45
2023-01-19T12:33:28.971Z,18.30
2023-01-19T12:36:01.067Z,18.10
2023-01-19T12:38:49.221Z,16.75
2023-01-19T12:41:26.230Z,16.83
2023-01-19T12:44:11.157Z,17.65
2023-01-19T12:46:45.949Z,18.10
2023-01-19T12:49:44.000Z,18.40
2023-01-19T12:52:47.731Z,17.23
2023-01-19T12:55:14.167Z,17.45
2023-01-19T12:57:56.556Z,17.48
2023-01-19T13:00:23.048Z,18.80
2023-01-19T13:02:51.239Z,18.05
2023-01-19T13:05:51.216Z,17.73
2023-01-19T13:08:20.151Z,18.23
2023-01-19T13:11:14.318Z,19.00
2023-01-19T13:13:49.876Z,18.35
2023-01-19T13:16:19.406Z,18.00
2023-01-19T13:18:51.527Z,17.15
2023-01-19T13:24:00.150Z,18.25
2023-01-19T13:26:39.001Z,18.85
2023-01-19T13:29:15.582Z,17.80
2023-01-19T13:31:44.708Z,17.05
2023-01-19T13:34:14.497Z,18.15
2023-01-19T13:36:45.182Z,17.42
2023-01-19T13:39:26.532Z,17.88
2023-01-19T13:41:56.068Z,7.38
2023-01-19T13:44:29.216Z,18.48
2023-01-19T13:46:57.468Z,18.67
2023-01-19T13:49:31.272Z,18.55
2023-01-19T13:52:14.916Z,18.33
2023-01-19T13:54:53.348Z,18.13
2023-01-19T13:57:53.559Z,18.95
2023-01-19T14:00:20.314Z,18.77
2023-01-19T14:03:04.770Z,20.13
2023-01-19T14:05:37.533Z,20.27
2023-01-19T14:08:05.625Z,21.83
2023-01-19T14:10:33.673Z,21.00
2023-01-19T14:13:05.426Z,22.42
2023-01-19T14:15:34.330Z,22.65
2023-01-19T14:18:15.933Z,24.55
2023-01-19T14:20:56.623Z,23.33
2023-01-19T14:23:45.276Z,23.63
2023-01-19T14:26:49.112Z,23.63
2023-01-19T14:29:21.516Z,23.17
2023-01-19T14:32:37.455Z,24.45
2023-01-19T14:35:04.541Z,24.48
2023-01-19T14:37:34.742Z,25.02
2023-01-19T14:40:11.133Z,23.92
2023-01-19T14:43:00.341Z,25.02
2023-01-19T14:45:37.296Z,24.83
2023-01-19T14:48:22.617Z,24.17
2023-01-19T14:51:02.888Z,23.73
2023-01-19T14:53:36.561Z,23.73
2023-01-19T14:56:04.974Z,24.08
2023-01-19T14:58:33.753Z,23.52
2023-01-19T15:01:00.707Z,23.35
2023-01-19T15:03:43.710Z,23.98
2023-01-19T15:06:17.297Z,23.08
2023-01-19T15:08:44.807Z,23.08
2023-01-19T15:11:26.794Z,22.58
2023-01-19T15:13:54.247Z,24.17
2023-01-19T15:16:21.920Z,22.33
2023-01-19T15:18:48.416Z,23.10
2023-01-19T15:21:19.531Z,23.02
2023-01-19T15:23:50.438Z,9.32
2023-01-19T15:26:18.885Z,24.48
2023-01-19T15:28:45.956Z,23.33
2023-01-19T15:31:16.005Z,23.10
2023-01-19T15:33:42.786Z,23.02
2023-01-19T15:36:18.230Z,22.90
2023-01-19T15:38:45.504Z,23.38
2023-01-19T15:41:25.674Z,23.70
2023-01-19T15:43:52.700Z,24.65
2023-01-19T15:46:20.668Z,23.83
2023-01-19T15:48:47.888Z,23.50
2023-01-19T15:51:16.072Z,23.77
2023-01-19T15:53:43.427Z,23.15
2023-01-19T15:56:17.902Z,23.27
2023-01-19T15:58:44.788Z,23.33
2023-01-19T16:01:16.127Z,23.63
2023-01-19T16:03:43.354Z,21.90
2023-01-19T16:06:10.731Z,22.42
2023-01-19T16:08:37.584Z,21.95
2023-01-19T16:11:09.498Z,21.77
2023-01-19T16:16:04.937Z,21.08
2023-01-19T16:18:31.655Z,19.90
2023-01-19T16:20:58.236Z,20.52
2023-01-19T16:23:24.832Z,20.45
2023-01-19T16:26:01.135Z,19.05
2023-01-19T16:28:27.705Z,19.65
2023-01-19T16:30:54.525Z,20.23
2023-01-19T16:33:21.019Z,19.52
2023-01-19T16:35:47.906Z,19.48
2023-01-19T16:38:14.582Z,19.23
2023-01-19T16:40:44.077Z,19.50
2023-01-19T16:43:10.633Z,19.73
2023-01-19T16:45:58.109Z,21.27
2023-01-19T16:48:25.811Z,20.00
2023-01-19T16:51:00.682Z,19.88
2023-01-19T16:53:27.963Z,20.80
2023-01-19T16:55:54.590Z,25.40
2023-01-19T16:58:21.224Z,22.13
2023-01-19T17:00:47.785Z,22.88
2023-01-19T17:03:14.420Z,21.58
2023-01-19T17:05:40.959Z,19.27
2023-01-19T17:08:07.490Z,19.23
2023-01-19T17:10:36.639Z,18.38
2023-01-19T17:13:03.955Z,21.88
2023-01-19T17:15:30.899Z,20.08
2023-01-19T17:17:57.372Z,25.13
2023-01-19T17:20:23.846Z,24.45
2023-01-19T17:22:50.361Z,24.58
2023-01-19T17:25:16.984Z,22.75
2023-01-19T17:27:43.509Z,22.02
2023-01-19T17:30:10.785Z,24.10
2023-01-19T17:32:37.529Z,23.95
2023-01-19T17:35:04.248Z,24.13
2023-01-19T17:37:30.734Z,22.50
2023-01-19T17:39:57.218Z,23.88
2023-01-19T17:42:24.292Z,22.48
2023-01-19T17:44:50.834Z,22.40
2023-01-19T17:47:17.450Z,23.70
2023-01-19T17:49:43.969Z,22.35
2023-01-19T17:52:10.491Z,22.70
2023-01-19T17:54:37.018Z,22.63
2023-01-19T17:57:03.646Z,21.52
2023-01-19T17:59:30.190Z,22.73
2023-01-19T18:01:56.724Z,23.85
2023-01-19T18:04:23.354Z,24.45
2023-01-19T18:06:50.125Z,23.45
2023-01-19T18:09:16.629Z,24.13
2023-01-19T18:11:43.192Z,24.40
2023-01-19T18:14:09.686Z,24.05
2023-01-19T18:16:36.605Z,23.67
2023-01-19T18:19:03.604Z,25.25
2023-01-19T18:21:30.367Z,25.73
2023-01-19T18:24:02.333Z,27.48
2023-01-19T18:26:29.728Z,27.77
2023-01-19T18:28:57.085Z,27.25
2023-01-19T18:31:24.068Z,25.50
2023-01-19T18:33:50.692Z,26.10
2023-01-19T18:36:17.651Z,25.52
2023-01-19T18:38:44.941Z,24.23
2023-01-19T18:41:14.480Z,27.60
2023-01-19T18:43:41.587Z,24.95
2023-01-19T18:46:08.692Z,24.63
2023-01-19T18:48:36.408Z,23.55
2023-01-19T18:51:20.712Z,24.17
2023-01-19T18:53:47.286Z,24.92
2023-01-19T18:56:15.619Z,24.38
2023-01-19T18:58:42.884Z,24.00
2023-01-19T19:01:24.653Z,25.02
2023-01-19T19:03:52.059Z,25.73
2023-01-19T19:06:20.659Z,9.13
2023-01-19T19:08:51.491Z,24.92
2023-01-19T19:11:19.489Z,9.30
2023-01-19T19:13:46.193Z,24.90
2023-01-19T19:16:13.369Z,24.92
2023-01-19T19:18:39.903Z,24.45
2023-01-19T19:21:11.619Z,24.27
2023-01-19T19:23:38.634Z,25.42
2023-01-19T19:26:07.551Z,24.92
2023-01-19T19:28:36.685Z,26.90
2023-01-19T19:31:12.453Z,26.67
2023-01-19T19:33:39.235Z,25.70
2023-01-19T19:36:06.738Z,24.95
2023-01-19T19:38:34.729Z,25.27
2023-01-19T19:41:08.313Z,25.48
2023-01-19T19:43:35.426Z,25.52
2023-01-19T19:46:05.368Z,25.63
2023-01-19T19:48:32.634Z,25.00
2023-01-19T19:51:18.207Z,25.10
2023-01-19T19:53:45.890Z,8.68
2023-01-19T19:56:13.135Z,25.70
2023-01-19T19:58:41.709Z,9.02
2023-01-19T20:01:14.187Z,26.27
2023-01-19T20:03:41.347Z,25.83
2023-01-19T20:06:13.799Z,26.40
2023-01-19T20:08:40.518Z,26.80
2023-01-19T20:11:12.680Z,27.85
2023-01-19T20:13:40.797Z,28.08
2023-01-19T20:16:12.479Z,26.98
2023-01-19T20:18:43.672Z,28.15
2023-01-19T20:21:18.635Z,11.05
2023-01-19T20:23:46.699Z,28.58
2023-01-19T20:26:15.477Z,28.70
2023-01-19T20:28:42.328Z,29.27
2023-01-19T20:31:22.444Z,27.92
2023-01-19T20:33:50.568Z,27.15
2023-01-19T20:36:17.514Z,28.55
2023-01-19T20:38:44.592Z,26.88
2023-01-19T20:41:12.635Z,28.67
2023-01-19T20:43:39.634Z,28.92
2023-01-19T20:46:06.721Z,30.45
2023-01-19T20:48:33.289Z,28.92
2023-01-19T20:51:01.888Z,26.35
2023-01-19T20:53:29.412Z,27.30
2023-01-19T20:55:56.070Z,10.18
2023-01-19T20:58:23.474Z,26.88
2023-01-19T21:00:50.727Z,26.00
2023-01-19T21:03:17.353Z,27.45
2023-01-19T21:05:46.830Z,26.13
2023-01-19T21:08:14.717Z,26.75
2023-01-19T21:10:42.274Z,26.80
2023-01-19T21:13:09.069Z,27.40
2023-01-19T21:15:35.567Z,28.10
2023-01-19T21:18:02.169Z,9.07
2023-01-19T21:20:31.603Z,28.45
2023-01-19T21:22:58.944Z,10.23
2023-01-19T21:25:25.468Z,10.90
2023-01-19T21:27:51.988Z,30.40
2023-01-19T21:30:18.746Z,29.38
2023-01-19T21:32:45.255Z,29.63
2023-01-19T21:35:12.221Z,28.58
2023-01-19T21:37:38.904Z,29.25
2023-01-19T21:40:06.288Z,28.00
2023-01-19T21:42:32.854Z,30.27
2023-01-19T21:44:59.345Z,10.20
2023-01-19T21:47:25.863Z,29.23
2023-01-19T21:49:52.427Z,29.65
2023-01-19T21:52:18.951Z,29.90
2023-01-19T21:54:45.427Z,31.38
2023-01-19T21:57:15.071Z,9.13
2023-01-19T21:59:41.647Z,29.65
2023-01-19T22:02:11.559Z,31.13
2023-01-19T22:04:39.143Z,30.92
2023-01-19T22:07:06.471Z,10.98
2023-01-19T22:09:36.415Z,30.73
2023-01-19T22:12:03.128Z,30.30
2023-01-19T22:14:29.688Z,30.48
2023-01-19T22:16:56.247Z,30.85
2023-01-19T22:19:22.780Z,32.45
2023-01-19T22:21:49.362Z,11.15
2023-01-19T22:24:15.924Z,33.15
2023-01-19T22:26:42.671Z,32.33
2023-01-19T22:29:11.221Z,35.47
2023-01-19T22:31:39.065Z,16.55
2023-01-19T22:34:10.351Z,48.85
2023-01-19T22:36:38.066Z,15.32
2023-01-19T22:39:10.131Z,33.75
2023-01-19T22:41:43.842Z,32.65
2023-01-19T22:44:20.884Z,32.45
2023-01-19T22:46:48.579Z,33.45
2023-01-19T22:49:16.976Z,33.05
2023-01-19T22:51:44.148Z,34.35
2023-01-19T22:54:11.004Z,34.90
2023-01-19T22:56:39.438Z,35.88
2023-01-19T22:59:06.673Z,12.57
2023-01-19T23:01:40.082Z,33.70
2023-01-19T23:04:08.476Z,36.25
2023-01-19T23:06:36.616Z,35.42
2023-01-19T23:09:10.063Z,36.05
2023-01-19T23:11:39.911Z,37.05
2023-01-19T23:14:09.415Z,36.55
2023-01-19T23:16:36.280Z,37.58
2023-01-19T23:19:03.533Z,37.05
2023-01-19T23:21:31.469Z,38.17
2023-01-19T23:24:03.008Z,37.13
2023-01-19T23:26:30.942Z,12.68
2023-01-19T23:29:01.850Z,14.13
2023-01-19T23:31:34.451Z,35.42
2023-01-19T23:34:03.735Z,13.18
2023-01-19T23:36:32.427Z,36.20
2023-01-19T23:39:04.369Z,34.28
2023-01-19T23:43:58.843Z,34.70
2023-01-19T23:46:25.384Z,36.25
2023-01-19T23:48:51.963Z,33.53
2023-01-19T23:51:21.634Z,33.85
2023-01-19T23:53:48.625Z,33.65
2023-01-19T23:56:18.655Z,32.88
2023-01-19T23:58:46.746Z,32.10
